sensor_id;sensor_type;location;lat;lon;timestamp;pressure;altitude;pressure_sealevel;temperature;humidity
56719;BME280;42597;40.636;0.278;2022-09-01T00:02:01;97225.19;;;24.97;69.77
56719;BME280;42597;40.636;0.278;2022-09-01T00:04:35;97225.09;;;24.72;69.86
56719;BME280;42597;40.636;0.278;2022-09-01T00:07:04;97227.03;;;25.17;68.86
56719;BME280;42597;40.636;0.278;2022-09-01T00:09:31;97221.00;;;25.05;68.44
56719;BME280;42597;40.636;0.278;2022-09-01T00:11:56;97219.16;;;25.15;68.59
56719;BME280;42597;40.636;0.278;2022-09-01T00:14:26;97217.22;;;24.99;68.89
56719;BME280;42597;40.636;0.278;2022-09-01T00:16:53;97213.31;;;24.84;69.24
56719;BME280;42597;40.636;0.278;2022-09-01T00:19:19;97208.59;;;24.55;71.29
56719;BME280;42597;40.636;0.278;2022-09-01T00:21:46;97208.91;;;24.99;69.20
56719;BME280;42597;40.636;0.278;2022-09-01T00:24:14;97214.31;;;24.90;68.83
56719;BME280;42597;40.636;0.278;2022-09-01T00:26:40;97205.78;;;25.14;68.24
56719;BME280;42597;40.636;0.278;2022-09-01T00:29:06;97200.72;;;24.83;69.14
56719;BME280;42597;40.636;0.278;2022-09-01T00:31:32;97199.72;;;24.77;68.04
56719;BME280;42597;40.636;0.278;2022-09-01T00:33:59;97197.19;;;25.08;67.80
56719;BME280;42597;40.636;0.278;2022-09-01T00:36:25;97195.28;;;24.92;68.42
56719;BME280;42597;40.636;0.278;2022-09-01T00:38:51;97185.38;;;24.95;68.20
56719;BME280;42597;40.636;0.278;2022-09-01T00:41:19;97181.16;;;24.90;68.01
56719;BME280;42597;40.636;0.278;2022-09-01T00:43:52;97185.25;;;24.98;67.86
56719;BME280;42597;40.636;0.278;2022-09-01T00:46:21;97186.72;;;25.16;66.51
56719;BME280;42597;40.636;0.278;2022-09-01T00:48:52;97180.22;;;25.09;66.89
56719;BME280;42597;40.636;0.278;2022-09-01T00:51:19;97174.63;;;24.84;68.01
56719;BME280;42597;40.636;0.278;2022-09-01T00:53:44;97185.97;;;25.15;66.95
56719;BME280;42597;40.636;0.278;2022-09-01T00:56:12;97180.72;;;24.92;66.90
56719;BME280;42597;40.636;0.278;2022-09-01T00:58:38;97184.47;;;24.27;67.92
56719;BME280;42597;40.636;0.278;2022-09-01T01:01:06;97181.28;;;23.67;70.23
56719;BME280;42597;40.636;0.278;2022-09-01T01:03:33;97175.44;;;23.81;70.52
56719;BME280;42597;40.636;0.278;2022-09-01T01:06:02;97173.50;;;23.61;71.84
56719;BME280;42597;40.636;0.278;2022-09-01T01:08:34;97173.97;;;24.22;70.75
56719;BME280;42597;40.636;0.278;2022-09-01T01:11:11;97179.09;;;24.52;69.24
56719;BME280;42597;40.636;0.278;2022-09-01T01:13:52;97181.31;;;24.28;67.44
56719;BME280;42597;40.636;0.278;2022-09-01T01:16:19;97179.88;;;24.07;70.27
56719;BME280;42597;40.636;0.278;2022-09-01T01:18:45;97180.22;;;24.09;69.63
56719;BME280;42597;40.636;0.278;2022-09-01T01:21:27;97173.69;;;24.61;67.67
56719;BME280;42597;40.636;0.278;2022-09-01T01:24:33;97181.56;;;24.18;68.42
56719;BME280;42597;40.636;0.278;2022-09-01T01:26:59;97187.91;;;23.53;70.17
56719;BME280;42597;40.636;0.278;2022-09-01T01:29:27;97178.00;;;23.72;70.75
56719;BME280;42597;40.636;0.278;2022-09-01T01:31:55;97183.25;;;24.44;68.45
56719;BME280;42597;40.636;0.278;2022-09-01T01:34:21;97179.53;;;24.05;67.71
56719;BME280;42597;40.636;0.278;2022-09-01T01:36:48;97193.13;;;23.31;69.69
56719;BME280;42597;40.636;0.278;2022-09-01T01:39:21;97175.13;;;22.90;72.27
56719;BME280;42597;40.636;0.278;2022-09-01T01:41:50;97177.22;;;23.71;70.76
56719;BME280;42597;40.636;0.278;2022-09-01T01:44:21;97184.28;;;24.05;68.89
56719;BME280;42597;40.636;0.278;2022-09-01T01:46:51;97180.50;;;24.28;68.04
56719;BME280;42597;40.636;0.278;2022-09-01T01:49:19;97182.38;;;24.47;67.70
56719;BME280;42597;40.636;0.278;2022-09-01T01:51:46;97174.41;;;24.78;66.49
56719;BME280;42597;40.636;0.278;2022-09-01T01:54:13;97169.47;;;24.28;66.67
56719;BME280;42597;40.636;0.278;2022-09-01T01:56:39;97175.13;;;23.43;68.23
56719;BME280;42597;40.636;0.278;2022-09-01T01:59:07;97185.09;;;23.04;69.39
56719;BME280;42597;40.636;0.278;2022-09-01T02:01:38;97179.28;;;22.78;71.88
56719;BME280;42597;40.636;0.278;2022-09-01T02:04:03;97181.13;;;22.85;71.66
56719;BME280;42597;40.636;0.278;2022-09-01T02:06:32;97177.31;;;24.00;68.18
56719;BME280;42597;40.636;0.278;2022-09-01T02:08:59;97187.81;;;24.05;68.03
56719;BME280;42597;40.636;0.278;2022-09-01T02:11:28;97178.97;;;24.27;66.43
56719;BME280;42597;40.636;0.278;2022-09-01T02:13:54;97177.56;;;24.35;66.00
56719;BME280;42597;40.636;0.278;2022-09-01T02:16:23;97177.91;;;23.92;66.87
56719;BME280;42597;40.636;0.278;2022-09-01T02:18:49;97179.81;;;22.93;71.31
56719;BME280;42597;40.636;0.278;2022-09-01T02:21:21;97178.06;;;23.35;67.95
56719;BME280;42597;40.636;0.278;2022-09-01T02:23:51;97168.91;;;24.20;66.53
56719;BME280;42597;40.636;0.278;2022-09-01T02:26:30;97174.69;;;24.09;64.84
56719;BME280;42597;40.636;0.278;2022-09-01T02:29:03;97165.56;;;23.47;66.62
56719;BME280;42597;40.636;0.278;2022-09-01T02:31:31;97166.97;;;23.72;68.06
56719;BME280;42597;40.636;0.278;2022-09-01T02:33:59;97160.34;;;24.14;66.81
56719;BME280;42597;40.636;0.278;2022-09-01T02:36:25;97171.50;;;24.40;65.24
56719;BME280;42597;40.636;0.278;2022-09-01T02:38:53;97164.28;;;24.30;65.22
56719;BME280;42597;40.636;0.278;2022-09-01T02:41:19;97168.59;;;24.31;64.41
56719;BME280;42597;40.636;0.278;2022-09-01T02:43:47;97167.91;;;24.27;64.74
56719;BME280;42597;40.636;0.278;2022-09-01T02:46:13;97166.00;;;24.40;64.19
56719;BME280;42597;40.636;0.278;2022-09-01T02:48:42;97162.66;;;24.16;64.40
56719;BME280;42597;40.636;0.278;2022-09-01T02:51:12;97173.16;;;24.37;64.12
56719;BME280;42597;40.636;0.278;2022-09-01T02:53:39;97168.59;;;24.31;64.57
56719;BME280;42597;40.636;0.278;2022-09-01T02:56:09;97166.75;;;24.11;64.42
56719;BME280;42597;40.636;0.278;2022-09-01T02:58:39;97165.88;;;24.14;64.03
56719;BME280;42597;40.636;0.278;2022-09-01T03:01:15;97166.47;;;24.22;64.00
56719;BME280;42597;40.636;0.278;2022-09-01T03:03:45;97165.00;;;23.88;64.40
56719;BME280;42597;40.636;0.278;2022-09-01T03:06:10;97161.44;;;24.04;63.97
56719;BME280;42597;40.636;0.278;2022-09-01T03:08:37;97159.00;;;24.06;63.81
56719;BME280;42597;40.636;0.278;2022-09-01T03:11:05;97156.00;;;24.01;63.95
56719;BME280;42597;40.636;0.278;2022-09-01T03:13:36;97157.09;;;24.03;63.54
56719;BME280;42597;40.636;0.278;2022-09-01T03:16:03;97159.75;;;23.78;63.65
56719;BME280;42597;40.636;0.278;2022-09-01T03:18:29;97159.38;;;23.92;64.26
56719;BME280;42597;40.636;0.278;2022-09-01T03:20:54;97151.38;;;23.65;65.01
56719;BME280;42597;40.636;0.278;2022-09-01T03:23:20;97147.41;;;23.82;64.43
56719;BME280;42597;40.636;0.278;2022-09-01T03:25:46;97144.19;;;23.35;63.14
56719;BME280;42597;40.636;0.278;2022-09-01T03:28:13;97144.38;;;23.28;64.73
56719;BME280;42597;40.636;0.278;2022-09-01T03:30:44;97139.69;;;22.92;65.84
56719;BME280;42597;40.636;0.278;2022-09-01T03:33:10;97135.53;;;22.64;67.74
56719;BME280;42597;40.636;0.278;2022-09-01T03:35:36;97147.34;;;22.25;66.83
56719;BME280;42597;40.636;0.278;2022-09-01T03:38:03;97150.59;;;22.20;66.20
56719;BME280;42597;40.636;0.278;2022-09-01T03:40:31;97139.19;;;22.77;63.97
56719;BME280;42597;40.636;0.278;2022-09-01T03:42:59;97140.81;;;22.75;63.96
56719;BME280;42597;40.636;0.278;2022-09-01T03:45:24;97145.41;;;22.61;64.41
56719;BME280;42597;40.636;0.278;2022-09-01T03:47:52;97137.09;;;22.25;65.17
56719;BME280;42597;40.636;0.278;2022-09-01T03:50:21;97136.25;;;22.48;65.35
56719;BME280;42597;40.636;0.278;2022-09-01T03:52:51;97135.94;;;22.62;65.46
56719;BME280;42597;40.636;0.278;2022-09-01T03:55:29;97142.28;;;22.00;65.42
56719;BME280;42597;40.636;0.278;2022-09-01T03:57:58;97128.78;;;21.62;66.62
56719;BME280;42597;40.636;0.278;2022-09-01T04:00:27;97123.81;;;21.77;66.59
56719;BME280;42597;40.636;0.278;2022-09-01T04:02:56;97132.75;;;21.61;67.22
56719;BME280;42597;40.636;0.278;2022-09-01T04:05:24;97130.50;;;21.99;65.77
56719;BME280;42597;40.636;0.278;2022-09-01T04:07:54;97129.41;;;22.56;65.93
56719;BME280;42597;40.636;0.278;2022-09-01T04:10:20;97125.38;;;22.41;64.44
56719;BME280;42597;40.636;0.278;2022-09-01T04:12:47;97132.13;;;21.97;65.83
56719;BME280;42597;40.636;0.278;2022-09-01T04:15:13;97137.81;;;21.86;66.95
56719;BME280;42597;40.636;0.278;2022-09-01T04:17:44;97125.19;;;22.32;66.96
56719;BME280;42597;40.636;0.278;2022-09-01T04:20:28;97122.81;;;22.70;65.56
56719;BME280;42597;40.636;0.278;2022-09-01T04:23:05;97121.13;;;23.12;65.19
56719;BME280;42597;40.636;0.278;2022-09-01T04:25:36;97129.38;;;22.96;65.19
56719;BME280;42597;40.636;0.278;2022-09-01T04:28:04;97136.69;;;23.35;64.14
56719;BME280;42597;40.636;0.278;2022-09-01T04:30:39;97142.31;;;23.81;62.98
56719;BME280;42597;40.636;0.278;2022-09-01T04:33:08;97143.63;;;23.60;62.24
56719;BME280;42597;40.636;0.278;2022-09-01T04:35:38;97143.03;;;22.44;64.49
56719;BME280;42597;40.636;0.278;2022-09-01T04:38:05;97143.63;;;21.68;67.53
56719;BME280;42597;40.636;0.278;2022-09-01T04:40:39;97139.84;;;21.58;68.10
56719;BME280;42597;40.636;0.278;2022-09-01T04:43:06;97139.50;;;22.43;67.29
56719;BME280;42597;40.636;0.278;2022-09-01T04:45:33;97140.06;;;22.54;66.02
56719;BME280;42597;40.636;0.278;2022-09-01T04:48:01;97148.28;;;22.74;66.44
56719;BME280;42597;40.636;0.278;2022-09-01T04:50:27;97150.91;;;23.18;64.72
56719;BME280;42597;40.636;0.278;2022-09-01T04:52:56;97148.34;;;23.27;63.13
56719;BME280;42597;40.636;0.278;2022-09-01T04:55:22;97157.00;;;22.53;64.48
56719;BME280;42597;40.636;0.278;2022-09-01T04:57:49;97144.88;;;23.06;64.36
56719;BME280;42597;40.636;0.278;2022-09-01T05:00:16;97157.22;;;23.51;62.86
56719;BME280;42597;40.636;0.278;2022-09-01T05:02:50;97155.88;;;23.06;64.17
56719;BME280;42597;40.636;0.278;2022-09-01T05:05:17;97166.25;;;22.23;65.98
56719;BME280;42597;40.636;0.278;2022-09-01T05:07:43;97156.66;;;22.31;65.64
56719;BME280;42597;40.636;0.278;2022-09-01T05:10:09;97160.94;;;22.12;67.27
56719;BME280;42597;40.636;0.278;2022-09-01T05:12:34;97159.25;;;22.78;65.65
56719;BME280;42597;40.636;0.278;2022-09-01T05:15:01;97162.09;;;23.10;64.17
56719;BME280;42597;40.636;0.278;2022-09-01T05:17:31;97158.66;;;23.06;64.52
56719;BME280;42597;40.636;0.278;2022-09-01T05:19:56;97154.53;;;23.14;64.36
56719;BME280;42597;40.636;0.278;2022-09-01T05:22:22;97159.72;;;23.29;63.83
56719;BME280;42597;40.636;0.278;2022-09-01T05:24:48;97159.03;;;23.25;63.95
56719;BME280;42597;40.636;0.278;2022-09-01T05:27:16;97167.13;;;23.32;64.29
56719;BME280;42597;40.636;0.278;2022-09-01T05:29:43;97159.34;;;23.27;64.83
56719;BME280;42597;40.636;0.278;2022-09-01T05:32:11;97168.69;;;23.33;63.90
56719;BME280;42597;40.636;0.278;2022-09-01T05:34:37;97176.41;;;23.05;64.69
56719;BME280;42597;40.636;0.278;2022-09-01T05:37:05;97174.19;;;23.33;64.04
56719;BME280;42597;40.636;0.278;2022-09-01T05:39:32;97173.63;;;23.74;62.64
56719;BME280;42597;40.636;0.278;2022-09-01T05:41:59;97180.88;;;23.15;64.20
56719;BME280;42597;40.636;0.278;2022-09-01T05:44:25;97182.56;;;23.29;64.47
56719;BME280;42597;40.636;0.278;2022-09-01T05:46:52;97175.22;;;23.55;63.14
56719;BME280;42597;40.636;0.278;2022-09-01T05:49:20;97174.06;;;23.73;62.71
56719;BME280;42597;40.636;0.278;2022-09-01T05:51:48;97182.38;;;23.36;63.54
56719;BME280;42597;40.636;0.278;2022-09-01T05:54:15;97188.50;;;23.28;63.56
56719;BME280;42597;40.636;0.278;2022-09-01T05:56:42;97184.34;;;22.63;64.76
56719;BME280;42597;40.636;0.278;2022-09-01T05:59:09;97177.91;;;23.43;63.50
56719;BME280;42597;40.636;0.278;2022-09-01T06:01:36;97179.56;;;23.40;63.83
56719;BME280;42597;40.636;0.278;2022-09-01T06:04:06;97169.78;;;23.35;63.77
56719;BME280;42597;40.636;0.278;2022-09-01T06:06:39;97177.41;;;23.11;63.80
56719;BME280;42597;40.636;0.278;2022-09-01T06:09:06;97174.19;;;23.33;64.78
56719;BME280;42597;40.636;0.278;2022-09-01T06:11:32;97174.72;;;23.44;63.42
56719;BME280;42597;40.636;0.278;2022-09-01T06:13:59;97175.91;;;22.90;64.53
56719;BME280;42597;40.636;0.278;2022-09-01T06:16:26;97188.41;;;22.15;66.72
56719;BME280;42597;40.636;0.278;2022-09-01T06:18:53;97178.66;;;21.87;67.80
56719;BME280;42597;40.636;0.278;2022-09-01T06:21:22;97184.56;;;22.09;67.17
56719;BME280;42597;40.636;0.278;2022-09-01T06:23:49;97180.88;;;22.20;67.12
56719;BME280;42597;40.636;0.278;2022-09-01T06:28:54;97179.53;;;22.67;64.99
56719;BME280;42597;40.636;0.278;2022-09-01T06:31:21;97179.94;;;22.46;65.62
56719;BME280;42597;40.636;0.278;2022-09-01T06:33:49;97173.44;;;22.96;65.37
56719;BME280;42597;40.636;0.278;2022-09-01T06:36:16;97179.75;;;23.66;63.44
56719;BME280;42597;40.636;0.278;2022-09-01T06:38:43;97187.31;;;23.78;62.21
56719;BME280;42597;40.636;0.278;2022-09-01T06:41:09;97180.19;;;23.11;63.56
56719;BME280;42597;40.636;0.278;2022-09-01T06:43:39;97174.56;;;22.79;65.43
56719;BME280;42597;40.636;0.278;2022-09-01T06:46:05;97173.38;;;23.00;64.83
56719;BME280;42597;40.636;0.278;2022-09-01T06:48:37;97167.63;;;23.27;63.77
56719;BME280;42597;40.636;0.278;2022-09-01T06:51:15;97175.91;;;23.43;63.61
56719;BME280;42597;40.636;0.278;2022-09-01T06:53:43;97170.75;;;23.45;63.54
56719;BME280;42597;40.636;0.278;2022-09-01T06:56:10;97172.47;;;23.55;63.34
56719;BME280;42597;40.636;0.278;2022-09-01T06:58:41;97176.47;;;23.71;62.96
56719;BME280;42597;40.636;0.278;2022-09-01T07:01:11;97176.91;;;23.69;62.86
56719;BME280;42597;40.636;0.278;2022-09-01T07:03:43;97165.25;;;23.45;63.21
56719;BME280;42597;40.636;0.278;2022-09-01T07:06:10;97161.97;;;23.83;62.05
56719;BME280;42597;40.636;0.278;2022-09-01T07:08:36;97168.69;;;23.98;61.42
56719;BME280;42597;40.636;0.278;2022-09-01T07:11:15;97175.56;;;24.35;60.82
56719;BME280;42597;40.636;0.278;2022-09-01T07:13:42;97169.19;;;24.38;60.09
56719;BME280;42597;40.636;0.278;2022-09-01T07:16:16;97169.56;;;24.24;60.19
56719;BME280;42597;40.636;0.278;2022-09-01T07:18:44;97162.47;;;24.40;59.96
56719;BME280;42597;40.636;0.278;2022-09-01T07:21:10;97164.41;;;24.68;58.97
56719;BME280;42597;40.636;0.278;2022-09-01T07:23:35;97165.66;;;24.80;57.99
56719;BME280;42597;40.636;0.278;2022-09-01T07:26:05;97163.13;;;24.85;58.18
56719;BME280;42597;40.636;0.278;2022-09-01T07:28:31;97167.13;;;24.84;58.16
56719;BME280;42597;40.636;0.278;2022-09-01T07:30:58;97158.28;;;24.90;58.25
56719;BME280;42597;40.636;0.278;2022-09-01T07:33:25;97164.28;;;25.26;57.44
56719;BME280;42597;40.636;0.278;2022-09-01T07:35:52;97154.84;;;25.62;55.84
56719;BME280;42597;40.636;0.278;2022-09-01T07:38:24;97170.56;;;25.52;55.93
56719;BME280;42597;40.636;0.278;2022-09-01T07:40:50;97166.47;;;25.44;57.15
56719;BME280;42597;40.636;0.278;2022-09-01T07:43:22;97164.16;;;25.55;56.17
56719;BME280;42597;40.636;0.278;2022-09-01T07:45:54;97161.84;;;25.16;58.39
56719;BME280;42597;40.636;0.278;2022-09-01T07:48:21;97162.75;;;25.25;58.21
56719;BME280;42597;40.636;0.278;2022-09-01T07:50:50;97166.84;;;25.21;58.89
56719;BME280;42597;40.636;0.278;2022-09-01T07:53:22;97166.34;;;25.86;58.50
56719;BME280;42597;40.636;0.278;2022-09-01T07:55:50;97180.97;;;25.87;56.43
56719;BME280;42597;40.636;0.278;2022-09-01T07:58:17;97180.19;;;25.48;57.95
56719;BME280;42597;40.636;0.278;2022-09-01T08:00:44;97187.81;;;25.56;58.14
56719;BME280;42597;40.636;0.278;2022-09-01T08:03:15;97177.88;;;26.41;56.92
56719;BME280;42597;40.636;0.278;2022-09-01T08:05:41;97177.69;;;26.01;57.21
56719;BME280;42597;40.636;0.278;2022-09-01T08:08:07;97177.72;;;26.57;56.86
56719;BME280;42597;40.636;0.278;2022-09-01T08:10:33;97182.78;;;26.81;60.22
56719;BME280;42597;40.636;0.278;2022-09-01T08:12:59;97187.22;;;27.00;61.13
56719;BME280;42597;40.636;0.278;2022-09-01T08:15:25;97173.53;;;26.75;61.19
56719;BME280;42597;40.636;0.278;2022-09-01T08:17:51;97177.66;;;26.70;61.92
56719;BME280;42597;40.636;0.278;2022-09-01T08:20:16;97179.78;;;26.97;60.89
56719;BME280;42597;40.636;0.278;2022-09-01T08:22:42;97178.28;;;26.52;61.90
56719;BME280;42597;40.636;0.278;2022-09-01T08:25:08;97178.47;;;26.80;60.92
56719;BME280;42597;40.636;0.278;2022-09-01T08:27:35;97177.63;;;26.92;60.54
56719;BME280;42597;40.636;0.278;2022-09-01T08:30:04;97186.75;;;27.24;59.68
56719;BME280;42597;40.636;0.278;2022-09-01T08:32:30;97183.97;;;27.24;59.89
56719;BME280;42597;40.636;0.278;2022-09-01T08:34:56;97181.69;;;27.10;60.58
56719;BME280;42597;40.636;0.278;2022-09-01T08:37:22;97183.41;;;27.38;59.48
56719;BME280;42597;40.636;0.278;2022-09-01T08:39:48;97184.00;;;27.33;59.35
56719;BME280;42597;40.636;0.278;2022-09-01T08:45:02;97184.69;;;27.46;60.68
56719;BME280;42597;40.636;0.278;2022-09-01T08:47:30;97180.34;;;27.45;61.15
56719;BME280;42597;40.636;0.278;2022-09-01T08:49:59;97185.47;;;27.56;60.55
56719;BME280;42597;40.636;0.278;2022-09-01T08:52:30;97185.50;;;27.65;60.78
56719;BME280;42597;40.636;0.278;2022-09-01T08:57:42;97191.03;;;27.56;61.39
56719;BME280;42597;40.636;0.278;2022-09-01T09:00:14;97192.66;;;27.35;61.80
56719;BME280;42597;40.636;0.278;2022-09-01T09:05:32;97188.19;;;27.78;61.11
56719;BME280;42597;40.636;0.278;2022-09-01T09:08:09;97201.19;;;26.66;61.93
56719;BME280;42597;40.636;0.278;2022-09-01T09:10:50;97189.75;;;27.48;60.60
56719;BME280;42597;40.636;0.278;2022-09-01T09:16:05;97201.13;;;27.81;59.84
56719;BME280;42597;40.636;0.278;2022-09-01T09:18:41;97204.88;;;28.05;59.42
56719;BME280;42597;40.636;0.278;2022-09-01T09:21:18;97197.50;;;28.30;58.86
56719;BME280;42597;40.636;0.278;2022-09-01T09:23:48;97205.66;;;27.47;61.31
56719;BME280;42597;40.636;0.278;2022-09-01T09:26:15;97214.00;;;27.25;61.90
56719;BME280;42597;40.636;0.278;2022-09-01T09:28:42;97217.94;;;27.37;61.64
56719;BME280;42597;40.636;0.278;2022-09-01T09:33:51;97217.69;;;27.53;61.46
56719;BME280;42597;40.636;0.278;2022-09-01T09:36:20;97215.13;;;27.68;60.58
56719;BME280;42597;40.636;0.278;2022-09-01T09:38:46;97211.56;;;27.59;60.70
56719;BME280;42597;40.636;0.278;2022-09-01T09:41:26;97212.25;;;27.81;60.41
56719;BME280;42597;40.636;0.278;2022-09-01T09:43:56;97211.25;;;27.66;59.61
56719;BME280;42597;40.636;0.278;2022-09-01T09:46:37;97217.66;;;27.44;59.39
56719;BME280;42597;40.636;0.278;2022-09-01T09:49:21;97212.47;;;27.55;60.23
56719;BME280;42597;40.636;0.278;2022-09-01T09:51:56;97211.19;;;27.47;60.97
56719;BME280;42597;40.636;0.278;2022-09-01T09:54:23;97203.16;;;27.49;61.48
56719;BME280;42597;40.636;0.278;2022-09-01T09:57:10;97202.84;;;27.78;61.33
56719;BME280;42597;40.636;0.278;2022-09-01T10:02:30;97205.00;;;27.84;60.50
56719;BME280;42597;40.636;0.278;2022-09-01T10:05:00;97206.63;;;27.63;62.15
56719;BME280;42597;40.636;0.278;2022-09-01T10:07:35;97197.84;;;27.64;61.64
56719;BME280;42597;40.636;0.278;2022-09-01T10:10:07;97203.81;;;26.69;61.28
56719;BME280;42597;40.636;0.278;2022-09-01T10:12:51;97207.59;;;27.38;63.22
56719;BME280;42597;40.636;0.278;2022-09-01T10:15:20;97206.75;;;27.99;61.07
56719;BME280;42597;40.636;0.278;2022-09-01T10:17:47;97198.75;;;28.38;59.11
56719;BME280;42597;40.636;0.278;2022-09-01T10:20:24;97201.19;;;28.18;60.02
56719;BME280;42597;40.636;0.278;2022-09-01T10:22:51;97195.63;;;28.18;59.62
56719;BME280;42597;40.636;0.278;2022-09-01T10:25:24;97190.69;;;28.22;59.62
56719;BME280;42597;40.636;0.278;2022-09-01T10:27:55;97198.00;;;26.98;60.00
56719;BME280;42597;40.636;0.278;2022-09-01T10:30:22;97190.81;;;27.41;62.61
56719;BME280;42597;40.636;0.278;2022-09-01T10:32:59;97178.34;;;28.14;60.47
56719;BME280;42597;40.636;0.278;2022-09-01T10:35:31;97174.75;;;27.27;62.72
56719;BME280;42597;40.636;0.278;2022-09-01T10:38:00;97178.88;;;27.72;62.00
56719;BME280;42597;40.636;0.278;2022-09-01T10:42:56;97176.09;;;27.72;62.87
56719;BME280;42597;40.636;0.278;2022-09-01T10:45:36;97162.44;;;27.96;57.89
56719;BME280;42597;40.636;0.278;2022-09-01T11:04:11;97161.78;;;27.73;62.56
56719;BME280;42597;40.636;0.278;2022-09-01T11:14:31;97157.38;;;28.03;61.79
56719;BME280;42597;40.636;0.278;2022-09-01T11:17:35;97154.88;;;27.96;62.49
56719;BME280;42597;40.636;0.278;2022-09-01T11:22:42;97147.78;;;28.04;60.91
56719;BME280;42597;40.636;0.278;2022-09-01T11:36:55;97134.59;;;28.88;57.75
56719;BME280;42597;40.636;0.278;2022-09-01T11:39:27;97138.03;;;27.82;59.44
56719;BME280;42597;40.636;0.278;2022-09-01T11:41:59;97133.28;;;27.82;64.82
56719;BME280;42597;40.636;0.278;2022-09-01T11:44:31;97134.53;;;27.99;62.75
56719;BME280;42597;40.636;0.278;2022-09-01T11:47:03;97142.53;;;27.88;63.02
56719;BME280;42597;40.636;0.278;2022-09-01T11:49:35;97140.69;;;28.22;61.45
56719;BME280;42597;40.636;0.278;2022-09-01T11:52:03;97128.97;;;28.36;58.93
56719;BME280;42597;40.636;0.278;2022-09-01T11:54:37;97132.06;;;28.20;62.21
56719;BME280;42597;40.636;0.278;2022-09-01T11:57:17;97127.50;;;27.58;61.20
56719;BME280;42597;40.636;0.278;2022-09-01T11:59:43;97123.72;;;28.47;59.90
56719;BME280;42597;40.636;0.278;2022-09-01T12:02:16;97122.16;;;28.10;61.26
56719;BME280;42597;40.636;0.278;2022-09-01T12:04:42;97115.22;;;28.42;59.73
56719;BME280;42597;40.636;0.278;2022-09-01T12:07:13;97114.13;;;28.30;59.73
56719;BME280;42597;40.636;0.278;2022-09-01T12:09:50;97119.06;;;28.35;61.60
56719;BME280;42597;40.636;0.278;2022-09-01T12:12:30;97112.31;;;27.99;62.29
56719;BME280;42597;40.636;0.278;2022-09-01T12:14:57;97099.94;;;28.00;63.08
56719;BME280;42597;40.636;0.278;2022-09-01T12:17:25;97107.69;;;27.78;62.45
56719;BME280;42597;40.636;0.278;2022-09-01T12:19:51;97102.41;;;28.17;61.93
56719;BME280;42597;40.636;0.278;2022-09-01T12:22:19;97099.88;;;28.65;60.41
56719;BME280;42597;40.636;0.278;2022-09-01T12:24:53;97101.47;;;28.29;60.63
56719;BME280;42597;40.636;0.278;2022-09-01T12:27:20;97095.31;;;28.43;59.38
56719;BME280;42597;40.636;0.278;2022-09-01T12:29:48;97083.59;;;28.39;59.09
56719;BME280;42597;40.636;0.278;2022-09-01T12:32:15;97087.84;;;27.58;60.88
56719;BME280;42597;40.636;0.278;2022-09-01T12:34:44;97098.06;;;29.37;57.67
56719;BME280;42597;40.636;0.278;2022-09-01T12:37:24;97093.31;;;28.86;58.52
56719;BME280;42597;40.636;0.278;2022-09-01T12:39:57;97077.56;;;27.86;60.69
56719;BME280;42597;40.636;0.278;2022-09-01T12:42:32;97077.88;;;28.43;59.80
56719;BME280;42597;40.636;0.278;2022-09-01T12:45:09;97079.84;;;28.33;59.40
56719;BME280;42597;40.636;0.278;2022-09-01T12:50:14;97076.66;;;27.89;59.45
56719;BME280;42597;40.636;0.278;2022-09-01T12:52:54;97079.59;;;28.03;61.54
56719;BME280;42597;40.636;0.278;2022-09-01T12:55:22;97088.81;;;28.10;60.26
56719;BME280;42597;40.636;0.278;2022-09-01T12:57:54;97074.97;;;27.82;60.90
56719;BME280;42597;40.636;0.278;2022-09-01T13:07:59;97090.97;;;28.33;62.52
56719;BME280;42597;40.636;0.278;2022-09-01T13:10:26;97078.63;;;28.25;64.53
56719;BME280;42597;40.636;0.278;2022-09-01T13:12:55;97090.06;;;28.09;65.11
56719;BME280;42597;40.636;0.278;2022-09-01T13:15:23;97076.16;;;27.72;66.96
56719;BME280;42597;40.636;0.278;2022-09-01T13:17:50;97072.34;;;27.88;65.71
56719;BME280;42597;40.636;0.278;2022-09-01T13:20:16;97064.72;;;28.52;63.61
56719;BME280;42597;40.636;0.278;2022-09-01T13:22:42;97064.81;;;28.67;63.37
56719;BME280;42597;40.636;0.278;2022-09-01T13:25:14;97061.91;;;28.62;63.92
56719;BME280;42597;40.636;0.278;2022-09-01T13:27:44;97074.00;;;28.40;63.93
56719;BME280;42597;40.636;0.278;2022-09-01T13:30:14;97064.56;;;28.89;63.26
56719;BME280;42597;40.636;0.278;2022-09-01T13:32:41;97066.38;;;28.68;63.73
56719;BME280;42597;40.636;0.278;2022-09-01T13:35:09;97063.06;;;28.37;64.03
56719;BME280;42597;40.636;0.278;2022-09-01T13:37:35;97065.72;;;27.94;67.41
56719;BME280;42597;40.636;0.278;2022-09-01T13:40:02;97065.41;;;28.11;66.56
56719;BME280;42597;40.636;0.278;2022-09-01T13:42:27;97061.97;;;27.70;67.67
56719;BME280;42597;40.636;0.278;2022-09-01T13:44:53;97047.78;;;28.23;66.87
56719;BME280;42597;40.636;0.278;2022-09-01T13:47:18;97051.19;;;27.81;67.81
56719;BME280;42597;40.636;0.278;2022-09-01T13:49:44;97048.28;;;27.75;67.01
56719;BME280;42597;40.636;0.278;2022-09-01T13:52:10;97038.03;;;28.27;65.54
56719;BME280;42597;40.636;0.278;2022-09-01T13:54:36;97042.09;;;27.80;67.35
56719;BME280;42597;40.636;0.278;2022-09-01T13:57:01;97034.81;;;27.65;68.65
56719;BME280;42597;40.636;0.278;2022-09-01T13:59:27;97025.28;;;27.84;67.38
56719;BME280;42597;40.636;0.278;2022-09-01T14:01:54;97012.78;;;27.89;66.80
56719;BME280;42597;40.636;0.278;2022-09-01T14:04:19;97012.75;;;27.61;69.94
56719;BME280;42597;40.636;0.278;2022-09-01T14:06:47;97015.41;;;27.55;70.65
56719;BME280;42597;40.636;0.278;2022-09-01T14:09:13;97011.38;;;27.47;71.00
56719;BME280;42597;40.636;0.278;2022-09-01T14:11:39;97001.66;;;27.24;69.39
56719;BME280;42597;40.636;0.278;2022-09-01T14:14:05;97005.53;;;27.64;71.34
56719;BME280;42597;40.636;0.278;2022-09-01T14:16:31;97006.75;;;27.44;71.39
56719;BME280;42597;40.636;0.278;2022-09-01T14:18:57;97007.38;;;27.67;70.61
56719;BME280;42597;40.636;0.278;2022-09-01T14:21:24;97005.66;;;27.33;69.80